Flight Number: EUR1168 Duration: 1:00
Departure: London City Airport (EGLC) at 21:15 Distance: 205 Nm
Arrival: Paris Charles-de-Gaulle (LFPG) at 22:15 Equipment: CRJ700

Weather Information
London City Airport, United Kingdom (EGLC) 51-30N 000-30W Oct 19, 2018 - 01:50 PM EDT / 2018.10.19 1750 UTC
Wind: Variable at 2 MPH (2 KT):0
Visibility: greater than 7 mile(s):0 Temperature: 57 F (14 C) Dew Point: 44 F (7 C) Relative Humidity: 62% Pressure (altimeter): 30.33 in. Hg (1027 hPa)
ob: EGLC 191750Z AUTO VRB02KT 9999 NCD 14/07 Q1027 cycle: 18
Sunrise: 06:35 Sunset: 16:53 (UTC)

Paris-Aeroport Charles De Gaulle, France (LFPG) 49-01N 002-32E 109M Oct 19, 2018 - 01:30 PM EDT / 2018.10.19 1730 UTC
Wind: Variable at 7 MPH (6 KT):0
Visibility: 3 mile(s):0 Temperature: 57 F (14 C) Dew Point: 51 F (11 C) Relative Humidity: 82% Pressure (altimeter): 30.24 in. Hg (1024 hPa)
ob: LFPG 191730Z VRB06KT 6000 NSC 14/11 Q1024 NOSIG cycle: 17
Sunrise: 06:20 Sunset: 16:48 (UTC)

TAF:2018/10/19 18:23 TAF LFPG 191700Z 1918/2024 02010KT 8000 NSW NSC TX19/2014Z TN09/2006Z PROB40 2002/2005 4000 BR

Previous Pireps for this route
Date Aircraft Flight time Fuel used Landing rate On time
2013-01-27CRJ70000.543706-221Yes
2013-08-09B73700.588696-506Charter
2013-08-11CRJ70000.5515086-404No
2013-10-24CRJ7001.0065530No
2013-10-25B1900D1.2070000No
2014-04-17CRJ7001.0054860No
2015-05-06CRJ7000.5520200Yes
2015-07-05CRJ7000.552080-163Yes
2015-07-07CRJ7000.562009-201Yes
2015-07-08CRJ7000.582485-179Yes
2015-08-18CRJ7000.542091-83Yes
(pireps marked green are flown by you)

Route map